sensor_id;sensor_type;location;lat;lon;timestamp;pressure;altitude;pressure_sealevel;temperature;humidity
59190;BME280;50749;51.636;4.948;2023-04-21T00:01:03;101591.09;;;17.90;52.65
59190;BME280;50749;51.636;4.948;2023-04-21T00:03:33;101591.09;;;17.90;52.98
59190;BME280;50749;51.636;4.948;2023-04-21T00:06:04;101601.00;;;17.91;52.83
59190;BME280;50749;51.636;4.948;2023-04-21T00:08:34;101598.25;;;17.91;52.75
59190;BME280;50749;51.636;4.948;2023-04-21T00:11:07;101592.25;;;17.89;52.55
59190;BME280;50749;51.636;4.948;2023-04-21T00:13:33;101581.19;;;17.89;52.50
59190;BME280;50749;51.636;4.948;2023-04-21T00:16:01;101581.19;;;17.89;52.79
59190;BME280;50749;51.636;4.948;2023-04-21T00:18:27;101590.63;;;17.88;52.84
59190;BME280;50749;51.636;4.948;2023-04-21T00:20:53;101576.78;;;17.88;52.66
59190;BME280;50749;51.636;4.948;2023-04-21T00:23:19;101574.34;;;17.86;52.45
59190;BME280;50749;51.636;4.948;2023-04-21T00:25:45;101565.22;;;17.86;52.72
59190;BME280;50749;51.636;4.948;2023-04-21T00:28:11;101562.47;;;17.86;52.93
59190;BME280;50749;51.636;4.948;2023-04-21T00:30:37;101564.41;;;17.85;52.79
59190;BME280;50749;51.636;4.948;2023-04-21T00:33:03;101560.84;;;17.85;52.49
59190;BME280;50749;51.636;4.948;2023-04-21T00:35:29;101561.97;;;17.83;52.70
59190;BME280;50749;51.636;4.948;2023-04-21T00:37:55;101558.06;;;17.85;52.99
59190;BME280;50749;51.636;4.948;2023-04-21T00:40:21;101553.22;;;17.81;52.62
59190;BME280;50749;51.636;4.948;2023-04-21T00:42:46;101547.69;;;17.81;53.01
59190;BME280;50749;51.636;4.948;2023-04-21T00:45:13;101544.13;;;17.81;52.79
59190;BME280;50749;51.636;4.948;2023-04-21T00:47:41;101544.91;;;17.81;52.91
59190;BME280;50749;51.636;4.948;2023-04-21T00:50:08;101540.56;;;17.80;52.78
59190;BME280;50749;51.636;4.948;2023-04-21T00:52:35;101536.97;;;17.80;52.82
59190;BME280;50749;51.636;4.948;2023-04-21T00:55:01;101542.50;;;17.80;52.96
59190;BME280;50749;51.636;4.948;2023-04-21T00:57:27;101551.28;;;17.82;52.69
59190;BME280;50749;51.636;4.948;2023-04-21T00:59:54;101543.31;;;17.80;52.57
59190;BME280;50749;51.636;4.948;2023-04-21T01:02:20;101534.19;;;17.80;52.93
59190;BME280;50749;51.636;4.948;2023-04-21T01:04:47;101536.97;;;17.80;52.69
59190;BME280;50749;51.636;4.948;2023-04-21T01:07:13;101538.94;;;17.79;52.77
59190;BME280;50749;51.636;4.948;2023-04-21T01:09:39;101545.59;;;17.78;52.76
59190;BME280;50749;51.636;4.948;2023-04-21T01:12:07;101533.41;;;17.79;52.98
59190;BME280;50749;51.636;4.948;2023-04-21T01:14:34;101530.63;;;17.79;53.18
59190;BME280;50749;51.636;4.948;2023-04-21T01:17:00;101531.75;;;17.78;53.01
59190;BME280;50749;51.636;4.948;2023-04-21T01:19:31;101537.28;;;17.78;53.12
59190;BME280;50749;51.636;4.948;2023-04-21T01:21:57;101539.25;;;17.78;52.97
59190;BME280;50749;51.636;4.948;2023-04-21T01:24:46;101534.88;;;17.77;53.00
59190;BME280;50749;51.636;4.948;2023-04-21T01:27:17;101544.00;;;17.77;53.01
59190;BME280;50749;51.636;4.948;2023-04-21T01:29:45;101532.94;;;17.77;52.90
59190;BME280;50749;51.636;4.948;2023-04-21T01:32:17;101524.63;;;17.77;53.11
59190;BME280;50749;51.636;4.948;2023-04-21T01:34:44;101527.41;;;17.77;52.74
59190;BME280;50749;51.636;4.948;2023-04-21T01:37:11;101527.75;;;17.76;53.08
59190;BME280;50749;51.636;4.948;2023-04-21T01:39:39;101530.50;;;17.76;52.84
59190;BME280;50749;51.636;4.948;2023-04-21T01:42:05;101514.25;;;17.74;52.98
59190;BME280;50749;51.636;4.948;2023-04-21T01:44:31;101513.13;;;17.75;52.96
59190;BME280;50749;51.636;4.948;2023-04-21T01:46:57;101517.81;;;17.75;52.96
59190;BME280;50749;51.636;4.948;2023-04-21T01:49:22;101509.84;;;17.73;53.04
59190;BME280;50749;51.636;4.948;2023-04-21T01:51:48;101512.63;;;17.73;52.81
59190;BME280;50749;51.636;4.948;2023-04-21T01:54:14;101513.78;;;17.72;53.01
59190;BME280;50749;51.636;4.948;2023-04-21T01:56:40;101524.03;;;17.72;53.11
59190;BME280;50749;51.636;4.948;2023-04-21T01:59:06;101518.50;;;17.72;53.24
59190;BME280;50749;51.636;4.948;2023-04-21T02:01:32;101512.16;;;17.71;52.67
59190;BME280;50749;51.636;4.948;2023-04-21T02:03:58;101501.44;;;17.70;53.02
59190;BME280;50749;51.636;4.948;2023-04-21T02:06:23;101493.97;;;17.70;52.85
59190;BME280;50749;51.636;4.948;2023-04-21T02:08:49;101484.03;;;17.69;52.90
59190;BME280;50749;51.636;4.948;2023-04-21T02:11:15;101482.91;;;17.70;53.18
59190;BME280;50749;51.636;4.948;2023-04-21T02:13:41;101488.78;;;17.69;52.83
59190;BME280;50749;51.636;4.948;2023-04-21T02:16:06;101473.31;;;17.68;53.14
59190;BME280;50749;51.636;4.948;2023-04-21T02:18:32;101478.06;;;17.67;53.10
59190;BME280;50749;51.636;4.948;2023-04-21T02:20:58;101478.06;;;17.67;52.83
59190;BME280;50749;51.636;4.948;2023-04-21T02:23:24;101467.00;;;17.67;52.93
59190;BME280;50749;51.636;4.948;2023-04-21T02:25:50;101468.94;;;17.67;53.27
59190;BME280;50749;51.636;4.948;2023-04-21T02:28:16;101470.91;;;17.66;52.83
59190;BME280;50749;51.636;4.948;2023-04-21T02:30:42;101467.34;;;17.66;53.01
59190;BME280;50749;51.636;4.948;2023-04-21T02:33:08;101469.28;;;17.65;53.09
59190;BME280;50749;51.636;4.948;2023-04-21T02:35:33;101471.56;;;17.63;53.04
59190;BME280;50749;51.636;4.948;2023-04-21T02:37:59;101462.47;;;17.62;53.14
59190;BME280;50749;51.636;4.948;2023-04-21T02:40:30;101462.47;;;17.62;53.22
59190;BME280;50749;51.636;4.948;2023-04-21T02:42:57;101451.41;;;17.62;53.15
59190;BME280;50749;51.636;4.948;2023-04-21T02:45:22;101455.00;;;17.63;52.96
59190;BME280;50749;51.636;4.948;2023-04-21T02:47:48;101454.19;;;17.62;52.85
59190;BME280;50749;51.636;4.948;2023-04-21T02:50:14;101450.63;;;17.62;53.26
59190;BME280;50749;51.636;4.948;2023-04-21T02:52:40;101444.59;;;17.60;53.06
59190;BME280;50749;51.636;4.948;2023-04-21T02:55:06;101441.50;;;17.61;52.82
59190;BME280;50749;51.636;4.948;2023-04-21T02:57:32;101442.66;;;17.60;53.05
59190;BME280;50749;51.636;4.948;2023-04-21T02:59:58;101443.81;;;17.59;53.12
59190;BME280;50749;51.636;4.948;2023-04-21T03:02:24;101438.28;;;17.59;53.09
59190;BME280;50749;51.636;4.948;2023-04-21T03:04:50;101442.19;;;17.58;53.36
59190;BME280;50749;51.636;4.948;2023-04-21T03:07:16;101436.66;;;17.58;53.41
59190;BME280;50749;51.636;4.948;2023-04-21T03:09:42;101443.00;;;17.59;53.34
59190;BME280;50749;51.636;4.948;2023-04-21T03:12:08;101435.84;;;17.58;53.22
59190;BME280;50749;51.636;4.948;2023-04-21T03:14:33;101439.41;;;17.58;53.15
59190;BME280;50749;51.636;4.948;2023-04-21T03:16:59;101437.81;;;17.57;53.21
59190;BME280;50749;51.636;4.948;2023-04-21T03:19:25;101431.50;;;17.57;53.11
59190;BME280;50749;51.636;4.948;2023-04-21T03:21:51;101437.81;;;17.57;53.30
59190;BME280;50749;51.636;4.948;2023-04-21T03:24:17;101434.25;;;17.57;53.30
59190;BME280;50749;51.636;4.948;2023-04-21T03:26:43;101427.09;;;17.56;53.22
59190;BME280;50749;51.636;4.948;2023-04-21T03:29:08;101434.25;;;17.57;52.70
59190;BME280;50749;51.636;4.948;2023-04-21T03:31:34;101431.13;;;17.58;52.77
59190;BME280;50749;51.636;4.948;2023-04-21T03:34:00;101428.50;;;17.62;52.73
59190;BME280;50749;51.636;4.948;2023-04-21T03:36:26;101420.00;;;17.67;52.69
59190;BME280;50749;51.636;4.948;2023-04-21T03:38:52;101421.72;;;17.72;52.35
59190;BME280;50749;51.636;4.948;2023-04-21T03:41:18;101429.78;;;17.77;51.64
59190;BME280;50749;51.636;4.948;2023-04-21T03:43:43;101422.44;;;17.81;52.05
59190;BME280;50749;51.636;4.948;2023-04-21T03:46:21;101422.53;;;17.85;51.89
59190;BME280;50749;51.636;4.948;2023-04-21T03:48:47;101420.75;;;17.89;51.41
59190;BME280;50749;51.636;4.948;2023-04-21T03:51:13;101416.47;;;17.91;51.25
59190;BME280;50749;51.636;4.948;2023-04-21T03:53:39;101415.00;;;17.94;51.64
59190;BME280;50749;51.636;4.948;2023-04-21T03:56:06;101397.22;;;17.95;51.23
59190;BME280;50749;51.636;4.948;2023-04-21T03:58:32;101412.00;;;17.99;51.41
59190;BME280;50749;51.636;4.948;2023-04-21T04:00:58;101414.06;;;18.02;51.33
59190;BME280;50749;51.636;4.948;2023-04-21T04:03:23;101413.72;;;18.04;51.24
59190;BME280;50749;51.636;4.948;2023-04-21T04:05:49;101422.50;;;18.06;51.40
59190;BME280;50749;51.636;4.948;2023-04-21T04:08:15;101424.09;;;18.07;51.26
59190;BME280;50749;51.636;4.948;2023-04-21T04:10:41;101419.03;;;18.09;51.48
59190;BME280;50749;51.636;4.948;2023-04-21T04:13:06;101428.59;;;18.11;51.46
59190;BME280;50749;51.636;4.948;2023-04-21T04:15:32;101429.41;;;18.12;51.50
59190;BME280;50749;51.636;4.948;2023-04-21T04:17:58;101422.72;;;18.13;51.35
59190;BME280;50749;51.636;4.948;2023-04-21T04:20:24;101416.84;;;18.14;51.47
59190;BME280;50749;51.636;4.948;2023-04-21T04:22:50;101418.44;;;18.15;51.35
59190;BME280;50749;51.636;4.948;2023-04-21T04:25:16;101410.97;;;18.16;51.54
59190;BME280;50749;51.636;4.948;2023-04-21T04:27:42;101421.09;;;18.12;50.52
59190;BME280;50749;51.636;4.948;2023-04-21T04:30:11;101417.09;;;18.09;50.39
59190;BME280;50749;51.636;4.948;2023-04-21T04:32:37;101412.22;;;18.06;50.72
59190;BME280;50749;51.636;4.948;2023-04-21T04:35:05;101411.28;;;18.02;50.78
59190;BME280;50749;51.636;4.948;2023-04-21T04:37:31;101411.28;;;18.02;50.82
59190;BME280;50749;51.636;4.948;2023-04-21T04:39:59;101415.56;;;17.99;50.40
59190;BME280;50749;51.636;4.948;2023-04-21T04:42:25;101406.13;;;18.00;50.59
59190;BME280;50749;51.636;4.948;2023-04-21T04:44:54;101406.94;;;18.01;50.85
59190;BME280;50749;51.636;4.948;2023-04-21T04:47:21;101413.72;;;18.04;50.57
59190;BME280;50749;51.636;4.948;2023-04-21T04:49:47;101410.94;;;18.04;50.32
59190;BME280;50749;51.636;4.948;2023-04-21T04:52:13;101426.41;;;18.05;51.12
59190;BME280;50749;51.636;4.948;2023-04-21T04:54:39;101414.31;;;18.09;51.30
59190;BME280;50749;51.636;4.948;2023-04-21T04:57:04;101424.81;;;18.16;50.99
59190;BME280;50749;51.636;4.948;2023-04-21T04:59:30;101418.22;;;18.20;51.14
59190;BME280;50749;51.636;4.948;2023-04-21T05:01:56;101423.06;;;18.24;51.48
59190;BME280;50749;51.636;4.948;2023-04-21T05:04:22;101429.53;;;18.28;51.21
59190;BME280;50749;51.636;4.948;2023-04-21T05:06:48;101426.53;;;18.33;51.38
59190;BME280;50749;51.636;4.948;2023-04-21T05:09:14;101431.38;;;18.36;51.34
59190;BME280;50749;51.636;4.948;2023-04-21T05:11:41;101424.34;;;18.38;51.28
59190;BME280;50749;51.636;4.948;2023-04-21T05:14:07;101429.97;;;18.42;51.08
59190;BME280;50749;51.636;4.948;2023-04-21T05:16:32;101433.22;;;18.44;50.88
59190;BME280;50749;51.636;4.948;2023-04-21T05:19:02;101434.81;;;18.45;51.50
59190;BME280;50749;51.636;4.948;2023-04-21T05:21:28;101436.91;;;18.48;51.30
59190;BME280;50749;51.636;4.948;2023-04-21T05:23:57;101429.03;;;18.50;52.05
59190;BME280;50749;51.636;4.948;2023-04-21T05:26:24;101437.34;;;18.50;51.17
59190;BME280;50749;51.636;4.948;2023-04-21T05:28:51;101433.78;;;18.50;50.99
59190;BME280;50749;51.636;4.948;2023-04-21T05:31:17;101437.34;;;18.50;51.62
59190;BME280;50749;51.636;4.948;2023-04-21T05:33:43;101440.13;;;18.50;51.22
59190;BME280;50749;51.636;4.948;2023-04-21T05:36:09;101438.97;;;18.51;51.56
59190;BME280;50749;51.636;4.948;2023-04-21T05:38:36;101443.72;;;18.51;51.30
59190;BME280;50749;51.636;4.948;2023-04-21T05:41:03;101439.31;;;18.50;51.36
59190;BME280;50749;51.636;4.948;2023-04-21T05:43:29;101454.78;;;18.51;51.78
59190;BME280;50749;51.636;4.948;2023-04-21T05:46:01;101454.41;;;18.52;51.49
59190;BME280;50749;51.636;4.948;2023-04-21T05:48:27;101451.66;;;18.52;51.85
59190;BME280;50749;51.636;4.948;2023-04-21T05:50:54;101457.19;;;18.52;51.46
59190;BME280;50749;51.636;4.948;2023-04-21T05:53:20;101455.25;;;18.53;51.95
59190;BME280;50749;51.636;4.948;2023-04-21T05:55:48;101457.19;;;18.52;51.61
59190;BME280;50749;51.636;4.948;2023-04-21T05:58:14;101462.72;;;18.52;51.54
59190;BME280;50749;51.636;4.948;2023-04-21T06:00:40;101462.03;;;18.55;51.97
59190;BME280;50749;51.636;4.948;2023-04-21T06:03:06;101461.69;;;18.57;52.24
59190;BME280;50749;51.636;4.948;2023-04-21T06:05:33;101460.56;;;18.58;52.27
59190;BME280;50749;51.636;4.948;2023-04-21T06:07:59;101462.97;;;18.60;51.78
59190;BME280;50749;51.636;4.948;2023-04-21T06:10:24;101459.72;;;18.57;52.10
59190;BME280;50749;51.636;4.948;2023-04-21T06:12:50;101455.81;;;18.59;52.12
59190;BME280;50749;51.636;4.948;2023-04-21T06:15:16;101457.44;;;18.60;52.16
59190;BME280;50749;51.636;4.948;2023-04-21T06:17:42;101450.28;;;18.59;52.66
59190;BME280;50749;51.636;4.948;2023-04-21T06:20:08;101451.91;;;18.60;53.32
59190;BME280;50749;51.636;4.948;2023-04-21T06:22:34;101444.72;;;18.59;53.44
59190;BME280;50749;51.636;4.948;2023-04-21T06:25:00;101456.16;;;18.57;54.08
59190;BME280;50749;51.636;4.948;2023-04-21T06:27:26;101449.38;;;18.54;54.53
59190;BME280;50749;51.636;4.948;2023-04-21T06:29:55;101455.25;;;18.53;54.45
59190;BME280;50749;51.636;4.948;2023-04-21T06:32:21;101454.78;;;18.51;54.52
59190;BME280;50749;51.636;4.948;2023-04-21T06:34:46;101453.97;;;18.50;54.97
59190;BME280;50749;51.636;4.948;2023-04-21T06:37:12;101453.16;;;18.50;55.27
59190;BME280;50749;51.636;4.948;2023-04-21T06:39:38;101450.75;;;18.48;55.03
59190;BME280;50749;51.636;4.948;2023-04-21T06:42:04;101454.66;;;18.47;55.49
59190;BME280;50749;51.636;4.948;2023-04-21T06:44:30;101459.75;;;18.45;55.57
59190;BME280;50749;51.636;4.948;2023-04-21T06:46:57;101456.16;;;18.45;55.22
59190;BME280;50749;51.636;4.948;2023-04-21T06:49:22;101463.69;;;18.44;55.58
59190;BME280;50749;51.636;4.948;2023-04-21T06:51:48;101462.84;;;18.44;55.74
59190;BME280;50749;51.636;4.948;2023-04-21T06:54:14;101460.44;;;18.42;55.92
59190;BME280;50749;51.636;4.948;2023-04-21T06:56:40;101449.34;;;18.42;55.91
59190;BME280;50749;51.636;4.948;2023-04-21T06:59:08;101450.53;;;18.41;55.89
59190;BME280;50749;51.636;4.948;2023-04-21T07:01:34;101453.63;;;18.40;56.16
59190;BME280;50749;51.636;4.948;2023-04-21T07:04:00;101459.97;;;18.40;56.27
59190;BME280;50749;51.636;4.948;2023-04-21T07:06:26;101453.63;;;18.40;56.12
59190;BME280;50749;51.636;4.948;2023-04-21T07:08:52;101448.09;;;18.40;56.21
59190;BME280;50749;51.636;4.948;2023-04-21T07:11:18;101452.81;;;18.39;56.23
59190;BME280;50749;51.636;4.948;2023-04-21T07:13:43;101446.47;;;18.38;56.22
59190;BME280;50749;51.636;4.948;2023-04-21T07:16:09;101448.09;;;18.40;56.19
59190;BME280;50749;51.636;4.948;2023-04-21T07:18:35;101445.69;;;18.38;56.22
59190;BME280;50749;51.636;4.948;2023-04-21T07:21:01;101446.94;;;18.41;56.47
59190;BME280;50749;51.636;4.948;2023-04-21T07:23:27;101441.75;;;18.39;56.02
59190;BME280;50749;51.636;4.948;2023-04-21T07:25:53;101445.00;;;18.41;56.57
59190;BME280;50749;51.636;4.948;2023-04-21T07:28:19;101447.75;;;18.41;56.99
59190;BME280;50749;51.636;4.948;2023-04-21T07:30:45;101454.44;;;18.40;56.98
59190;BME280;50749;51.636;4.948;2023-04-21T07:33:10;101452.81;;;18.39;56.54
59190;BME280;50749;51.636;4.948;2023-04-21T07:35:36;101454.44;;;18.40;56.75
59190;BME280;50749;51.636;4.948;2023-04-21T07:38:02;101457.53;;;18.38;56.98
59190;BME280;50749;51.636;4.948;2023-04-21T07:40:28;101457.53;;;18.38;57.10
59190;BME280;50749;51.636;4.948;2023-04-21T07:42:54;101454.78;;;18.38;57.10
59190;BME280;50749;51.636;4.948;2023-04-21T07:45:20;101450.88;;;18.40;57.16
59190;BME280;50749;51.636;4.948;2023-04-21T07:47:46;101446.59;;;18.42;56.95
59190;BME280;50749;51.636;4.948;2023-04-21T07:50:12;101446.59;;;18.42;56.49
59190;BME280;50749;51.636;4.948;2023-04-21T07:52:38;101443.47;;;18.44;56.62
59190;BME280;50749;51.636;4.948;2023-04-21T07:55:04;101442.78;;;18.47;56.26
59190;BME280;50749;51.636;4.948;2023-04-21T07:57:30;101446.00;;;18.49;56.45
59190;BME280;50749;51.636;4.948;2023-04-21T07:59:59;101437.34;;;18.50;56.11
59190;BME280;50749;51.636;4.948;2023-04-21T08:02:24;101438.19;;;18.51;56.05
59190;BME280;50749;51.636;4.948;2023-04-21T08:04:50;101443.34;;;18.52;56.31
59190;BME280;50749;51.636;4.948;2023-04-21T08:07:16;101441.06;;;18.54;56.02
59190;BME280;50749;51.636;4.948;2023-04-21T08:09:42;101441.06;;;18.54;55.95
59190;BME280;50749;51.636;4.948;2023-04-21T08:12:08;101437.94;;;18.56;55.99
59190;BME280;50749;51.636;4.948;2023-04-21T08:14:34;101449.47;;;18.58;55.58
59190;BME280;50749;51.636;4.948;2023-04-21T08:16:59;101442.41;;;18.61;55.54
59190;BME280;50749;51.636;4.948;2023-04-21T08:19:26;101440.34;;;18.57;55.03
59190;BME280;50749;51.636;4.948;2023-04-21T08:21:51;101432.28;;;18.65;54.77
59190;BME280;50749;51.636;4.948;2023-04-21T08:24:17;101429.75;;;18.60;54.12
59190;BME280;50749;51.636;4.948;2023-04-21T08:26:43;101440.13;;;18.63;54.78
59190;BME280;50749;51.636;4.948;2023-04-21T08:29:09;101434.22;;;18.64;55.18
59190;BME280;50749;51.636;4.948;2023-04-21T08:31:35;101433.06;;;18.65;55.12
59190;BME280;50749;51.636;4.948;2023-04-21T08:34:01;101437.91;;;18.68;55.31
59190;BME280;50749;51.636;4.948;2023-04-21T08:36:27;101435.59;;;18.70;55.22
59190;BME280;50749;51.636;4.948;2023-04-21T08:38:53;101438.47;;;18.74;55.66
59190;BME280;50749;51.636;4.948;2023-04-21T08:41:20;101431.44;;;18.77;55.65
59190;BME280;50749;51.636;4.948;2023-04-21T08:43:47;101435.47;;;18.79;55.64
59190;BME280;50749;51.636;4.948;2023-04-21T08:46:13;101434.78;;;18.82;55.12
59190;BME280;50749;51.636;4.948;2023-04-21T08:48:40;101418.63;;;18.84;55.40
59190;BME280;50749;51.636;4.948;2023-04-21T08:51:07;101427.06;;;18.88;54.89
59190;BME280;50749;51.636;4.948;2023-04-21T08:53:36;101428.31;;;18.90;55.02
59190;BME280;50749;51.636;4.948;2023-04-21T08:56:03;101414.91;;;18.92;54.99
59190;BME280;50749;51.636;4.948;2023-04-21T08:58:29;101421.97;;;18.90;54.21
59190;BME280;50749;51.636;4.948;2023-04-21T09:00:55;101413.91;;;18.85;52.74
59190;BME280;50749;51.636;4.948;2023-04-21T09:03:26;101417.59;;;18.77;51.44
59190;BME280;50749;51.636;4.948;2023-04-21T09:06:03;101424.53;;;18.70;50.87
59190;BME280;50749;51.636;4.948;2023-04-21T09:08:30;101427.53;;;18.65;50.14
59190;BME280;50749;51.636;4.948;2023-04-21T09:10:58;101418.56;;;18.56;50.12
59190;BME280;50749;51.636;4.948;2023-04-21T09:13:29;101422.81;;;18.53;49.69
59190;BME280;50749;51.636;4.948;2023-04-21T09:15:55;101416.03;;;18.51;49.56
59190;BME280;50749;51.636;4.948;2023-04-21T09:18:22;101417.53;;;18.48;48.82
59190;BME280;50749;51.636;4.948;2023-04-21T09:20:50;101414.31;;;18.46;49.06
59190;BME280;50749;51.636;4.948;2023-04-21T09:23:17;101410.34;;;18.47;49.83
59190;BME280;50749;51.636;4.948;2023-04-21T09:25:44;101405.31;;;18.49;50.36
59190;BME280;50749;51.636;4.948;2023-04-21T09:28:12;101403.88;;;18.55;50.60
59190;BME280;50749;51.636;4.948;2023-04-21T09:30:41;101405.72;;;18.64;50.87
59190;BME280;50749;51.636;4.948;2023-04-21T09:33:14;101413.78;;;18.69;51.07
59190;BME280;50749;51.636;4.948;2023-04-21T09:35:41;101414.72;;;18.73;51.32
59190;BME280;50749;51.636;4.948;2023-04-21T09:38:11;101396.94;;;18.74;51.83
59190;BME280;50749;51.636;4.948;2023-04-21T09:40:38;101406.97;;;18.79;51.58
59190;BME280;50749;51.636;4.948;2023-04-21T09:43:08;101399.44;;;18.79;51.57
59190;BME280;50749;51.636;4.948;2023-04-21T09:45:34;101401.88;;;18.81;52.02
59190;BME280;50749;51.636;4.948;2023-04-21T09:48:02;101395.66;;;18.84;52.32
59190;BME280;50749;51.636;4.948;2023-04-21T09:50:30;101393.69;;;18.84;52.32
59190;BME280;50749;51.636;4.948;2023-04-21T09:52:57;101402.50;;;18.86;52.24
59190;BME280;50749;51.636;4.948;2023-04-21T09:55:26;101392.66;;;18.89;52.07
59190;BME280;50749;51.636;4.948;2023-04-21T09:57:57;101388.75;;;18.90;52.38
59190;BME280;50749;51.636;4.948;2023-04-21T10:00:28;101387.56;;;18.91;52.67
59190;BME280;50749;51.636;4.948;2023-04-21T10:02:56;101391.59;;;18.93;52.41
59190;BME280;50749;51.636;4.948;2023-04-21T10:05:22;101382.59;;;18.97;52.90
59190;BME280;50749;51.636;4.948;2023-04-21T10:07:48;101382.59;;;18.97;53.38
59190;BME280;50749;51.636;4.948;2023-04-21T10:10:24;101375.44;;;18.96;53.19
59190;BME280;50749;51.636;4.948;2023-04-21T10:12:50;101379.34;;;18.94;52.96
59190;BME280;50749;51.636;4.948;2023-04-21T10:18:18;101373.47;;;18.96;54.02
59190;BME280;50749;51.636;4.948;2023-04-21T10:21:00;101369.44;;;18.93;53.32
59190;BME280;50749;51.636;4.948;2023-04-21T10:23:32;101364.69;;;18.94;53.57
59190;BME280;50749;51.636;4.948;2023-04-21T10:28:43;101361.47;;;18.92;53.48
59190;BME280;50749;51.636;4.948;2023-04-21T10:31:35;101350.03;;;18.93;53.54
59190;BME280;50749;51.636;4.948;2023-04-21T10:36:33;101348.44;;;18.92;53.85
59190;BME280;50749;51.636;4.948;2023-04-21T10:39:02;101343.22;;;18.91;53.64
59190;BME280;50749;51.636;4.948;2023-04-21T10:41:32;101338.53;;;18.91;53.84
59190;BME280;50749;51.636;4.948;2023-04-21T10:44:20;101331.34;;;18.90;54.41
59190;BME280;50749;51.636;4.948;2023-04-21T10:46:50;101332.50;;;18.89;54.09
59190;BME280;50749;51.636;4.948;2023-04-21T10:49:20;101332.63;;;18.93;54.47
59190;BME280;50749;51.636;4.948;2023-04-21T10:54:25;101319.31;;;18.99;52.38
59190;BME280;50749;51.636;4.948;2023-04-21T10:56:52;101329.47;;;18.94;52.77
59190;BME280;50749;51.636;4.948;2023-04-21T10:59:19;101323.50;;;18.92;53.04
59190;BME280;50749;51.636;4.948;2023-04-21T11:01:45;101317.41;;;18.87;52.29
59190;BME280;50749;51.636;4.948;2023-04-21T11:04:15;101316.13;;;18.84;51.83
59190;BME280;50749;51.636;4.948;2023-04-21T11:06:41;101309.44;;;18.85;52.45
59190;BME280;50749;51.636;4.948;2023-04-21T11:09:07;101296.41;;;18.86;52.85
59190;BME280;50749;51.636;4.948;2023-04-21T11:11:34;101310.34;;;18.89;52.99
59190;BME280;50749;51.636;4.948;2023-04-21T11:14:02;101310.34;;;18.89;53.31
59190;BME280;50749;51.636;4.948;2023-04-21T11:16:28;101303.31;;;18.92;53.13
59190;BME280;50749;51.636;4.948;2023-04-21T11:18:55;101303.31;;;18.92;53.33
59190;BME280;50749;51.636;4.948;2023-04-21T11:21:21;101293.00;;;18.92;53.49
59190;BME280;50749;51.636;4.948;2023-04-21T11:23:55;101287.47;;;18.92;53.65
59190;BME280;50749;51.636;4.948;2023-04-21T11:26:35;101289.09;;;18.93;53.56
59190;BME280;50749;51.636;4.948;2023-04-21T11:29:07;101289.09;;;18.93;53.28
59190;BME280;50749;51.636;4.948;2023-04-21T11:31:35;101278.81;;;18.94;53.35
59190;BME280;50749;51.636;4.948;2023-04-21T11:34:02;101264.97;;;18.94;53.65
59190;BME280;50749;51.636;4.948;2023-04-21T11:36:38;101277.31;;;18.97;53.74
59190;BME280;50749;51.636;4.948;2023-04-21T11:39:09;101261.47;;;18.97;53.65
59190;BME280;50749;51.636;4.948;2023-04-21T11:41:38;101263.91;;;18.99;53.42
59190;BME280;50749;51.636;4.948;2023-04-21T11:44:04;101259.97;;;19.00;53.89
59190;BME280;50749;51.636;4.948;2023-04-21T11:46:30;101253.97;;;18.98;53.51
59190;BME280;50749;51.636;4.948;2023-04-21T11:48:59;101252.81;;;18.99;54.03
59190;BME280;50749;51.636;4.948;2023-04-21T11:51:25;101247.28;;;18.99;54.08
59190;BME280;50749;51.636;4.948;2023-04-21T11:53:52;101245.66;;;18.98;53.84
59190;BME280;50749;51.636;4.948;2023-04-21T11:56:21;101240.13;;;18.98;54.11
59190;BME280;50749;51.636;4.948;2023-04-21T11:58:49;101236.19;;;18.99;53.81
59190;BME280;50749;51.636;4.948;2023-04-21T12:01:18;101233.44;;;18.99;54.02
59190;BME280;50749;51.636;4.948;2023-04-21T12:03:53;101231.44;;;18.99;53.92
59190;BME280;50749;51.636;4.948;2023-04-21T12:06:23;101227.88;;;18.99;54.13
59190;BME280;50749;51.636;4.948;2023-04-21T12:08:54;101230.66;;;18.99;54.29
59190;BME280;50749;51.636;4.948;2023-04-21T12:11:22;101234.56;;;18.98;53.87
59190;BME280;50749;51.636;4.948;2023-04-21T12:13:48;101232.16;;;18.96;54.32
59190;BME280;50749;51.636;4.948;2023-04-21T12:16:14;101239.69;;;18.96;54.19
59190;BME280;50749;51.636;4.948;2023-04-21T12:18:41;101228.94;;;18.94;54.18
59190;BME280;50749;51.636;4.948;2023-04-21T12:21:07;101215.88;;;18.94;53.91
59190;BME280;50749;51.636;4.948;2023-04-21T12:23:33;101221.44;;;18.94;54.19
59190;BME280;50749;51.636;4.948;2023-04-21T12:25:58;101208.75;;;18.93;53.99
59190;BME280;50749;51.636;4.948;2023-04-21T12:28:25;101205.19;;;18.93;54.51
59190;BME280;50749;51.636;4.948;2023-04-21T12:30:51;101201.59;;;18.92;54.56
59190;BME280;50749;51.636;4.948;2023-04-21T12:33:17;101193.28;;;18.92;54.57
59190;BME280;50749;51.636;4.948;2023-04-21T12:35:42;101199.66;;;18.93;54.55
59190;BME280;50749;51.636;4.948;2023-04-21T12:38:08;101201.59;;;18.92;54.06
59190;BME280;50749;51.636;4.948;2023-04-21T12:40:34;101195.25;;;18.92;54.49
59190;BME280;50749;51.636;4.948;2023-04-21T12:43:00;101197.59;;;18.90;54.31
59190;BME280;50749;51.636;4.948;2023-04-21T12:45:26;101196.75;;;18.89;54.72
59190;BME280;50749;51.636;4.948;2023-04-21T12:47:52;101182.91;;;18.89;54.31
59190;BME280;50749;51.636;4.948;2023-04-21T12:50:19;101205.91;;;18.90;54.20
59190;BME280;50749;51.636;4.948;2023-04-21T12:52:45;101201.16;;;18.90;54.52
59190;BME280;50749;51.636;4.948;2023-04-21T12:55:12;101200.72;;;18.88;54.54
59190;BME280;50749;51.636;4.948;2023-04-21T12:57:38;101200.28;;;18.86;54.64
59190;BME280;50749;51.636;4.948;2023-04-21T13:00:05;101198.28;;;18.87;54.41